Chicago O'Hare International Airport
KORD : now visible

Airfield :











YOU CAN JOIN US ON...

 
LOGIN :

Register | Disclaimer

   EN    FR    IT 

 









Legend :    VFR   Marginal VFR   IFR   Intensive IFR   Very Intensive IFR
Visi :
Ceiling :
>= 8 km
>= 3000ft
5 to 8 km
1000 to 3000 ft
1500m to 5 km
500 to 1000 ft
800 to 1500m
200 to 500 ft
< 800m
< 200 ft
Symbols :   Thunderstorms  Fog  Heavy snow  Heavy precipitations  Wind > 20 kt







- Airport Elevation : 672 ft
- IATA code : ORD


KORD - Chicago O'Hare International

CURRENT METAR :
  • 201551Z 00000KT 10SM BKN039 OVC250 24/19 A3013 RMK AO2 SLP199 T02390194

EXPIRED METARs :
  • 201451Z 23004KT 10SM BKN039 OVC250 23/19 A3014 RMK AO2 SLP201 T02330189 51008
  • 201351Z 27003KT 10SM FEW044 SCT080 OVC250 22/19 A3013 RMK AO2 SLP201 T02170189

TAF KORD
Valid from the 20 at 15:00 until the 21 at 18:00 UTC


201448Z 2015/2118 21005KT P6SM SCT040 BKN080 OVC250
FM202300 12007KT P6SM SCT040 BKN250
FM210200 15003KT P6SM SCT050 BKN250
FM210700 20007KT P6SM SCT040 BKN120
FM211600 21015G25KT P6SM SCT040 OVC100
No reported NOTAMs for that airfield.



MET'MAP, your aeronautical weather chart ! - Copyright ORBIFLY December 2007 - Disclaimer

ORBIFLY MET'MAP TEAM :

Programming & Development : Alexandra Zaïnal
Concept & Development : Baudouin d'Aumeries
Co-Development & Prog : Marc-Olivier Méhu
Technical & hardware support : Manuel Goepfert

Contact : metmap@orbifly.com




SOURCES & CREDITS :

   NOAA       Earth
Advisory